The Hollow, Vermont
Current Conditions -  °F | °C
As of 4:24 PM on Friday 24 Oct 2014 (Local Time) from KBTV Reporting Station
Light Rain Light Rain  
Wind Chill: 43°   Ceiling: 1300
Heat Index: 47°   Visibility: 7mi
Dew Point: 42°   Wind: 8mph
Humidity: 83%   Direction: 330°NNW
Pressure: 29.84"   Gusts: NA
Location:  44.2438°N, 73.1915°W
Report Text: KBTV 242024Z 33007KT 7SM -RA BR OVC013 08/06 A2984 RMK AO2 RAB19 P0000 T00830056
Loading
Personal Weather Stations






























Interactive Weather Map
Tropical Storm Tracking
New forecast layout! Learn more

10-Day Weather Forecast

Advertisements
Track Severe Weather on mobile